Time;durP1;ratioP1;P1;durP2;ratioP2;P2;SDS_P1;SDS_P2;PMS_P1;PMS_P2;Temp;Humidity;BMP_temperature;BMP_pressure;BME280_temperature;BME280_humidity;BME280_pressure;Samples;Min_cycle;Max_cycle;Signal;HPM_P1;HPM_P2
2023/06/06 00:01:29;;;;;;;;;9.00;7.75;;;;;22.43;33.03;101274.00;4975939;28;45327;-52
2023/06/06 00:03:55;;;;;;;;;10.75;9.75;;;;;22.38;33.88;101282.28;4960518;28;45526;-52
2023/06/06 00:06:21;;;;;;;;;12.00;8.50;;;;;22.34;33.32;101279.81;4960777;28;45357;-51
2023/06/06 00:08:47;;;;;;;;;12.25;11.75;;;;;;;;4960273;28;45416;-51
2023/06/06 00:11:12;;;;;;;;;9.75;8.50;;;;;22.26;33.76;101274.06;4960804;28;45355;-52
2023/06/06 00:13:38;;;;;;;;;9.50;9.50;;;;;22.22;33.92;101270.69;4959150;28;45450;-53
2023/06/06 00:16:04;;;;;;;;;9.50;9.50;;;;;22.18;33.46;101258.41;4960169;28;45952;-51
2023/06/06 00:18:30;;;;;;;;;8.75;7.00;;;;;22.15;33.69;101258.56;4960430;28;45398;-49
2023/06/06 00:20:55;;;;;;;;;9.25;8.25;;;;;22.11;33.82;101263.22;4960703;28;45295;-52
2023/06/06 00:23:21;;;;;;;;;11.00;9.00;;;;;22.07;33.67;101264.34;4960574;28;45394;-52
2023/06/06 00:25:49;;;;;;;;;9.50;8.75;;;;;22.04;34.24;101264.53;4963486;28;46084;-50
2023/06/06 00:28:15;;;;;;;;;7.50;6.50;;;;;21.99;34.07;101258.56;4963607;28;45334;-53
2023/06/06 00:30:41;;;;;;;;;11.25;9.50;;;;;21.96;33.61;101253.38;4963877;28;45317;-51
2023/06/06 00:33:06;;;;;;;;;11.00;8.25;;;;;21.94;34.15;101265.94;4963539;28;45588;-50
2023/06/06 00:35:31;;;;;;;;;7.25;7.00;;;;;21.89;34.23;101263.53;4963555;28;46222;-52
2023/06/06 00:37:56;;;;;;;;;7.25;7.25;;;;;21.84;34.06;101258.44;4980911;28;45391;-52
2023/06/06 00:40:22;;;;;;;;;10.25;8.25;;;;;21.80;33.79;101264.00;4974748;28;47757;-52
2023/06/06 00:42:49;;;;;;;;;8.75;8.25;;;;;21.76;34.28;101258.00;4962409;28;45360;-51
2023/06/06 00:45:14;;;;;;;;;10.00;9.00;;;;;21.71;33.91;101260.91;4963386;28;45290;-52
2023/06/06 00:47:40;;;;;;;;;11.50;8.25;;;;;21.65;34.15;101255.03;4978494;28;45339;-52
2023/06/06 00:50:06;;;;;;;;;14.00;12.00;;;;;21.64;34.04;101259.50;4964210;28;45216;-50
2023/06/06 00:52:33;;;;;;;;;8.00;8.00;;;;;21.59;34.61;101254.38;4963633;28;45164;-51
2023/06/06 00:54:58;;;;;;;;;13.25;11.75;;;;;21.56;34.14;101259.03;4962750;28;46258;-53
2023/06/06 00:57:26;;;;;;;;;7.75;7.25;;;;;21.54;34.33;101258.22;4963398;28;45465;-51
2023/06/06 00:59:52;;;;;;;;;9.00;8.75;;;;;21.51;34.67;101253.00;4963395;28;45317;-51
2023/06/06 01:02:18;;;;;;;;;10.50;9.00;;;;;21.46;34.76;101253.28;4963258;28;45269;-52
2023/06/06 01:04:45;;;;;;;;;10.75;8.75;;;;;21.42;34.50;101252.56;4961764;28;46124;-51
2023/06/06 01:07:12;;;;;;;;;9.50;9.50;;;;;21.39;34.14;101247.34;4961570;28;45251;-50
2023/06/06 01:09:39;;;;;;;;;6.50;6.00;;;;;21.33;34.86;101242.31;4961169;28;45203;-50
2023/06/06 01:12:20;;;;;;;;;12.75;9.50;;;;;21.33;34.51;101247.66;4962877;28;45263;-52
2023/06/06 01:14:52;;;;;;;;;11.75;9.50;;;;;21.29;34.45;101238.09;4963070;28;45968;-49
2023/06/06 01:17:25;;;;;;;;;8.75;8.25;;;;;21.25;34.72;101236.53;4977754;28;45379;-49
2023/06/06 01:19:53;;;;;;;;;12.00;9.50;;;;;21.20;34.50;101243.91;4963133;28;45433;-50
2023/06/06 01:22:22;;;;;;;;;11.25;9.25;;;;;21.16;34.69;101235.19;4962876;28;45268;-52
2023/06/06 01:24:51;;;;;;;;;8.50;8.50;;;;;21.13;34.60;101239.81;4962631;28;45499;-50
2023/06/06 01:27:17;;;;;;;;;11.25;9.25;;;;;21.09;35.30;101240.00;4962731;28;45401;-50
2023/06/06 01:29:42;;;;;;;;;11.00;9.00;;;;;21.05;34.53;101241.06;4963038;28;45323;-52
2023/06/06 01:32:17;;;;;;;;;10.50;9.00;;;;;21.02;34.60;101243.91;4962804;28;45311;-50
2023/06/06 01:34:48;;;;;;;;;10.00;8.50;;;;;20.99;34.74;101244.03;4961770;28;46468;-51
2023/06/06 01:37:48;;;;;;;;;11.50;10.00;;;;;20.96;35.26;101240.69;4962804;28;45398;-51
2023/06/06 01:40:15;;;;;;;;;10.25;10.00;;;;;20.94;35.12;101243.41;4954721;28;45525;-52
2023/06/06 01:42:46;;;;;;;;;12.00;10.25;;;;;20.90;35.32;101234.69;4962738;28;45237;-52
2023/06/06 01:45:14;;;;;;;;;12.75;12.25;;;;;20.85;34.83;101228.72;4962288;28;45299;-51
2023/06/06 01:47:40;;;;;;;;;13.75;11.00;;;;;20.81;35.04;101232.47;4962448;28;45231;-51
2023/06/06 01:50:08;;;;;;;;;11.50;10.50;;;;;20.78;34.90;101236.16;4963837;28;45164;-51
2023/06/06 01:52:37;;;;;;;;;15.00;12.00;;;;;20.74;35.13;101231.94;4962502;28;45455;-50
2023/06/06 01:55:03;;;;;;;;;10.25;9.50;;;;;20.71;35.45;101240.06;4962001;28;46328;-52
2023/06/06 01:57:29;;;;;;;;;13.25;11.50;;;;;20.66;35.62;101234.06;4962344;28;45192;-49
2023/06/06 01:59:55;;;;;;;;;11.50;11.00;;;;;20.59;35.14;101217.50;4962472;28;45300;-51
2023/06/06 02:02:21;;;;;;;;;19.75;13.00;;;;;20.55;35.23;101223.94;4962375;28;45250;-52
2023/06/06 02:04:47;;;;;;;;;11.25;9.00;;;;;20.52;35.79;101226.72;4962297;28;45171;-52
2023/06/06 02:07:15;;;;;;;;;12.50;10.25;;;;;20.49;35.28;101226.88;4977397;28;45534;-52
2023/06/06 02:09:41;;;;;;;;;11.25;11.25;;;;;20.43;35.90;101228.03;4962004;28;45419;-49
2023/06/06 02:12:07;;;;;;;;;10.50;10.00;;;;;20.41;35.45;101229.91;4962167;28;45248;-48
2023/06/06 02:14:32;;;;;;;;;13.00;13.00;;;;;20.37;35.49;101228.31;4962018;28;46322;-52
2023/06/06 02:16:58;;;;;;;;;12.00;10.25;;;;;20.33;35.77;101226.75;4961880;28;45315;-48
2023/06/06 02:19:23;;;;;;;;;12.75;11.25;;;;;20.25;35.45;101224.44;4977219;28;45263;-51
2023/06/06 02:21:50;;;;;;;;;12.50;9.00;;;;;20.25;35.69;101229.78;4977184;28;45198;-52
2023/06/06 02:24:15;;;;;;;;;15.75;12.50;;;;;20.22;36.22;101235.25;4960496;28;47106;-51
2023/06/06 02:26:42;;;;;;;;;7.75;7.75;;;;;20.18;35.69;101233.66;4961812;28;45181;-52
2023/06/06 02:29:07;;;;;;;;;13.25;12.50;;;;;20.16;35.96;101232.88;4962672;28;45175;-50
2023/06/06 02:31:36;;;;;;;;;11.75;10.75;;;;;20.13;35.77;101238.34;4961811;28;45449;-52
2023/06/06 02:34:02;;;;;;;;;15.25;14.00;;;;;20.10;36.02;101242.03;4962044;28;45349;-51
2023/06/06 02:36:29;;;;;;;;;13.25;11.50;;;;;20.07;35.96;101242.16;4961527;28;45323;-51
2023/06/06 02:38:55;;;;;;;;;13.75;10.00;;;;;20.04;36.35;101239.66;4972461;28;45247;-48
2023/06/06 02:41:20;;;;;;;;;12.50;10.50;;;;;19.99;36.12;101239.00;4967732;28;45243;-53
2023/06/06 02:43:45;;;;;;;;;13.25;10.25;;;;;19.98;36.43;101243.44;4960563;28;46398;-51
2023/06/06 02:46:11;;;;;;;;;13.50;10.00;;;;;19.94;36.15;101233.00;4961767;28;45314;-50
2023/06/06 02:48:36;;;;;;;;;16.75;15.00;;;;;19.93;36.42;101239.28;4961899;28;45281;-52
2023/06/06 02:51:03;;;;;;;;;14.75;11.50;;;;;19.90;36.58;101239.41;4962292;28;45428;-51
2023/06/06 02:53:29;;;;;;;;;15.50;13.00;;;;;19.87;35.94;101228.88;4961525;28;45471;-52
2023/06/06 02:55:54;;;;;;;;;16.75;13.75;;;;;19.83;36.42;101232.63;4961040;28;45327;-51
2023/06/06 02:58:28;;;;;;;;;16.75;12.50;;;;;19.81;36.08;101230.88;4961833;28;45279;-50
2023/06/06 03:00:55;;;;;;;;;15.50;14.25;;;;;19.79;36.29;101227.38;4961408;28;45330;-51
2023/06/06 03:03:21;;;;;;;;;19.50;13.75;;;;;19.75;36.12;101224.97;4961583;28;45311;-52
2023/06/06 03:05:51;;;;;;;;;14.75;11.50;;;;;19.74;36.37;101225.88;4961313;28;45463;-51
2023/06/06 03:08:17;;;;;;;;;14.25;13.25;;;;;19.69;36.52;101223.41;4961939;28;45227;-52
2023/06/06 03:10:45;;;;;;;;;19.25;13.25;;;;;19.68;36.56;101235.00;4975475;28;45618;-50
2023/06/06 03:13:10;;;;;;;;;19.00;13.25;;;;;19.66;36.44;101220.91;4961285;28;45390;-49
2023/06/06 03:15:35;;;;;;;;;14.75;12.50;;;;;19.64;36.72;101222.75;4960873;28;45227;-51
2023/06/06 03:18:00;;;;;;;;;13.00;10.00;;;;;19.60;36.59;101227.34;4961522;28;45299;-51
2023/06/06 03:20:30;;;;;;;;;11.75;10.00;;;;;19.57;36.42;101227.50;4961173;28;45413;-51
2023/06/06 03:22:56;;;;;;;;;13.75;10.00;;;;;19.53;36.80;101222.38;4961194;28;45427;-50
2023/06/06 03:25:24;;;;;;;;;11.75;10.25;;;;;19.48;36.69;101215.44;4960636;28;45226;-51
2023/06/06 03:27:50;;;;;;;;;19.25;14.25;;;;;19.49;36.99;101230.47;4961141;28;45372;-50
2023/06/06 03:30:15;;;;;;;;;17.75;14.50;;;;;19.44;36.73;101216.50;4975617;28;45509;-52
2023/06/06 03:32:42;;;;;;;;;17.50;13.25;;;;;19.47;36.71;101227.03;4961410;28;45839;-52
2023/06/06 03:35:07;;;;;;;;;16.25;12.75;;;;;19.46;37.15;101227.13;4960830;28;45406;-51
2023/06/06 03:37:32;;;;;;;;;19.00;14.75;;;;;19.45;37.08;101225.38;4961249;28;45243;-50
2023/06/06 03:39:58;;;;;;;;;13.00;12.50;;;;;19.41;36.87;101221.97;4993290;28;45595;-54
2023/06/06 03:42:23;;;;;;;;;16.50;12.75;;;;;19.39;36.89;101229.16;4980658;28;45374;-50
2023/06/06 03:44:48;;;;;;;;;16.00;13.75;;;;;19.37;37.20;101233.72;4980353;28;46506;-51
2023/06/06 03:47:14;;;;;;;;;16.25;12.00;;;;;19.36;37.32;101225.75;4995744;28;45267;-52
2023/06/06 03:49:39;;;;;;;;;9.00;9.00;;;;;19.34;36.98;101233.81;4977222;28;50287;-52
2023/06/06 03:52:05;;;;;;;;;15.25;14.50;;;;;19.28;37.17;101236.75;4960907;28;45347;-51
2023/06/06 03:54:31;;;;;;;;;15.75;14.75;;;;;19.29;37.36;101236.69;4960522;28;45172;-52
2023/06/06 03:56:57;;;;;;;;;19.00;14.50;;;;;19.27;37.01;101240.34;4960756;28;45376;-50
2023/06/06 03:59:22;;;;;;;;;16.25;14.75;;;;;19.23;37.11;101238.75;4963718;28;45512;-53
2023/06/06 04:01:48;;;;;;;;;18.50;14.00;;;;;19.21;36.93;101238.81;4964276;28;46135;-51
2023/06/06 04:04:15;;;;;;;;;15.25;13.50;;;;;19.18;37.70;101233.59;4964123;28;45354;-52
2023/06/06 04:06:41;;;;;;;;;21.25;15.00;;;;;19.17;37.27;101243.41;4963879;28;45393;-50
2023/06/06 04:09:08;;;;;;;;;22.00;19.25;;;;;19.15;37.70;101239.09;4963745;28;45505;-51
2023/06/06 04:11:33;;;;;;;;;18.75;17.50;;;;;19.14;37.29;101248.88;4964119;28;46186;-52
2023/06/06 04:13:59;;;;;;;;;21.00;16.50;;;;;19.13;37.59;101246.25;4978915;28;45415;-51
2023/06/06 04:16:25;;;;;;;;;16.50;15.25;;;;;19.13;38.09;101255.13;4963945;28;45161;-50
2023/06/06 04:18:52;;;;;;;;;16.25;15.00;;;;;19.10;37.62;101246.41;4963808;28;45210;-52
2023/06/06 04:21:18;;;;;;;;;23.25;16.25;;;;;19.09;37.37;101256.16;4962739;28;45729;-51
2023/06/06 04:23:43;;;;;;;;;21.25;18.25;;;;;19.05;37.57;101254.56;4978527;28;45436;-52
2023/06/06 04:26:21;;;;;;;;;17.25;13.50;;;;;19.04;37.28;101244.00;4964062;28;45588;-51
2023/06/06 04:28:48;;;;;;;;;22.00;21.00;;;;;19.03;37.16;101243.13;4963788;28;45255;-49
2023/06/06 04:31:14;;;;;;;;;12.50;12.50;;;;;19.02;37.76;101244.06;4946464;28;47106;-49
2023/06/06 04:33:39;;;;;;;;;17.50;16.00;;;;;19.00;37.69;101232.59;4963599;28;45214;-51
2023/06/06 04:36:05;;;;;;;;;18.75;15.00;;;;;18.99;38.03;101237.06;4963575;28;45760;-52
2023/06/06 04:38:31;;;;;;;;;23.00;16.75;;;;;18.97;37.70;101243.41;4970478;28;45391;-51
2023/06/06 04:41:01;;;;;;;;;18.25;16.25;;;;;18.94;38.09;101238.19;4972542;28;45332;-52
2023/06/06 04:43:27;;;;;;;;;14.75;14.50;;;;;18.92;37.87;101248.91;4963619;28;46392;-51
2023/06/06 04:45:53;;;;;;;;;19.75;15.50;;;;;18.91;37.66;101240.97;4963760;28;45183;-51
2023/06/06 04:48:19;;;;;;;;;18.75;16.75;;;;;18.90;37.75;101242.75;4963319;28;45253;-52
2023/06/06 04:50:47;;;;;;;;;18.00;16.00;;;;;18.89;37.80;101254.28;4963773;28;47061;-51
2023/06/06 04:53:12;;;;;;;;;18.50;11.75;;;;;18.89;38.22;101248.13;4963406;28;45437;-52
2023/06/06 04:55:39;;;;;;;;;22.75;19.00;;;;;18.89;38.31;101248.13;4963104;28;45377;-52
2023/06/06 04:58:04;;;;;;;;;17.75;16.25;;;;;18.86;38.08;101249.13;4963440;28;45456;-52
2023/06/06 05:00:30;;;;;;;;;22.00;16.75;;;;;18.85;38.35;101242.06;4963445;28;46478;-52
2023/06/06 05:02:56;;;;;;;;;16.75;15.25;;;;;18.85;38.05;101239.38;4963229;28;46451;-52
2023/06/06 05:05:22;;;;;;;;;18.50;15.75;;;;;18.87;38.15;101239.31;4963260;28;45276;-52
2023/06/06 05:07:47;;;;;;;;;20.25;18.75;;;;;18.86;38.24;101251.78;4978168;28;45572;-52
2023/06/06 05:10:15;;;;;;;;;23.75;20.25;;;;;18.84;38.37;101243.84;4960533;28;46162;-51
2023/06/06 05:12:40;;;;;;;;;22.00;19.75;;;;;18.84;38.30;101249.19;4961834;28;46260;-51
2023/06/06 05:15:06;;;;;;;;;41.50;32.00;;;;;18.86;38.13;101253.59;4962891;28;45252;-52
2023/06/06 05:17:31;;;;;;;;;26.25;20.00;;;;;18.85;38.44;101250.03;4962931;28;45168;-52
2023/06/06 05:19:56;;;;;;;;;24.75;23.25;;;;;18.82;38.30;101251.03;4962945;28;45255;-50
2023/06/06 05:22:22;;;;;;;;;24.50;20.50;;;;;18.83;38.40;101251.91;4963023;28;45445;-50
2023/06/06 05:24:47;;;;;;;;;27.50;24.00;;;;;18.81;38.78;101241.31;4962807;28;45232;-50
2023/06/06 05:27:13;;;;;;;;;22.75;20.00;;;;;18.81;38.56;101243.97;4962774;28;45490;-52
2023/06/06 05:29:38;;;;;;;;;20.50;18.25;;;;;18.80;38.78;101242.25;4962864;28;46105;-52
2023/06/06 05:32:04;;;;;;;;;25.00;22.25;;;;;18.81;38.35;101246.63;4961420;28;48976;-48
2023/06/06 05:34:30;;;;;;;;;20.75;20.25;;;;;18.81;39.00;101246.63;4962984;28;45560;-51
2023/06/06 05:36:55;;;;;;;;;23.25;18.00;;;;;18.81;38.66;101249.28;4961259;28;45507;-51
2023/06/06 05:39:22;;;;;;;;;26.75;21.50;;;;;18.81;38.65;101243.13;4976550;28;45614;-49
2023/06/06 05:41:48;;;;;;;;;23.50;22.75;;;;;18.82;38.72;101252.84;4963698;28;45411;-51
2023/06/06 05:44:13;;;;;;;;;30.25;25.00;;;;;18.83;38.72;101242.13;4962771;28;45290;-51
2023/06/06 05:46:39;;;;;;;;;24.25;21.50;;;;;18.87;38.77;101252.63;4962597;28;45224;-52
2023/06/06 05:49:05;;;;;;;;;26.25;21.25;;;;;18.87;38.87;101253.50;4980880;28;46181;-52
2023/06/06 05:51:30;;;;;;;;;29.75;28.00;;;;;18.87;39.07;101257.94;4983786;28;45243;-51
2023/06/06 05:53:55;;;;;;;;;27.75;24.00;;;;;18.87;39.13;101249.97;4982082;28;45324;-52
2023/06/06 05:56:21;;;;;;;;;23.50;21.00;;;;;18.90;39.00;101260.50;4981645;28;45294;-52
2023/06/06 05:58:47;;;;;;;;;26.00;23.50;;;;;18.90;39.11;101257.84;4981774;28;46246;-53
2023/06/06 06:01:13;;;;;;;;;29.75;23.50;;;;;18.88;39.13;101260.59;4981754;28;45437;-52
2023/06/06 06:03:41;;;;;;;;;29.00;26.75;;;;;18.90;38.90;101255.19;4981988;28;45364;-51
2023/06/06 06:06:08;;;;;;;;;19.00;18.25;;;;;18.91;39.14;101256.97;4979935;28;45346;-50
2023/06/06 06:08:34;;;;;;;;;27.75;24.25;;;;;18.92;39.03;101254.22;4981408;28;46254;-55
2023/06/06 06:11:00;;;;;;;;;25.25;19.75;;;;;18.93;39.30;101255.97;4981426;28;45288;-50
2023/06/06 06:13:26;;;;;;;;;25.75;24.75;;;;;18.93;39.17;101255.06;4980370;28;45325;-52
2023/06/06 06:15:51;;;;;;;;;35.00;27.50;;;;;18.91;39.11;101260.47;4980642;28;45226;-58
2023/06/06 06:18:16;;;;;;;;;35.50;24.50;;;;;18.94;39.33;101264.81;4981829;28;48285;-52
2023/06/06 06:20:42;;;;;;;;;30.25;26.50;;;;;18.96;39.34;101257.63;4980649;28;45159;-55
2023/06/06 06:23:07;;;;;;;;;28.50;27.00;;;;;18.94;39.59;101254.16;4981477;28;45183;-57
2023/06/06 06:25:32;;;;;;;;;30.50;29.00;;;;;18.97;39.35;101254.91;4980146;28;45331;-57
2023/06/06 06:27:58;;;;;;;;;29.00;25.75;;;;;19.00;39.38;101261.91;4980922;28;49544;-53
2023/06/06 06:30:23;;;;;;;;;27.50;24.75;;;;;19.02;39.10;101253.84;4981481;28;45329;-55
2023/06/06 06:32:48;;;;;;;;;27.75;25.50;;;;;19.05;39.47;101265.22;4979690;28;45351;-58
2023/06/06 06:35:14;;;;;;;;;29.25;27.25;;;;;19.09;39.22;101263.31;4987090;28;45421;-59
2023/06/06 06:37:40;;;;;;;;;29.50;28.50;;;;;19.11;39.54;101267.63;4980070;28;46268;-59
2023/06/06 06:40:09;;;;;;;;;29.75;27.75;;;;;19.14;39.30;101264.88;4980670;28;45317;-59
2023/06/06 06:42:43;;;;;;;;;30.25;26.25;;;;;19.14;39.24;101261.31;4980912;28;45468;-59
2023/06/06 06:45:12;;;;;;;;;29.25;27.00;;;;;19.17;39.11;101262.06;4961453;28;45369;-59
2023/06/06 06:47:38;;;;;;;;;33.75;31.50;;;;;19.16;39.69;101262.13;4967912;28;45280;-59
2023/06/06 06:50:04;;;;;;;;;31.25;28.00;;;;;19.19;39.11;101271.78;4974804;28;45646;-59
2023/06/06 06:52:33;;;;;;;;;28.00;26.25;;;;;19.20;39.61;101269.06;4971487;28;45401;-59
2023/06/06 06:55:00;;;;;;;;;37.75;29.50;;;;;19.21;39.34;101268.13;4960924;28;45569;-58
2023/06/06 06:57:27;;;;;;;;;32.50;30.50;;;;;19.22;39.55;101264.53;4977821;28;46332;-59
2023/06/06 06:59:53;;;;;;;;;28.75;26.25;;;;;19.25;39.49;101267.06;4980828;28;45259;-57
2023/06/06 07:02:19;;;;;;;;;28.00;26.00;;;;;19.28;39.85;101268.72;4981269;28;45338;-57
2023/06/06 07:04:46;;;;;;;;;28.00;26.50;;;;;19.30;39.69;101272.19;4980640;28;45450;-57
2023/06/06 07:07:15;;;;;;;;;26.75;23.50;;;;;19.34;39.59;101273.78;4980758;28;45438;-61
2023/06/06 07:09:40;;;;;;;;;33.25;28.50;;;;;19.35;39.95;101275.53;4980380;28;45346;-57
2023/06/06 07:12:07;;;;;;;;;33.00;28.75;;;;;19.37;39.74;101271.00;4980905;28;45342;-57
2023/06/06 07:14:33;;;;;;;;;32.25;29.75;;;;;19.41;39.77;101274.41;4980483;28;45547;-57
2023/06/06 07:16:58;;;;;;;;;30.25;26.50;;;;;19.42;39.76;101269.00;4982890;28;46513;-57
2023/06/06 07:19:26;;;;;;;;;32.25;30.25;;;;;19.43;39.90;101265.44;4980414;28;45455;-56
2023/06/06 07:21:52;;;;;;;;;30.75;30.00;;;;;19.47;40.05;101269.69;4982634;28;45450;-56
2023/06/06 07:24:17;;;;;;;;;35.00;31.75;;;;;19.49;39.82;101267.78;4961565;28;45628;-56
2023/06/06 07:26:44;;;;;;;;;27.75;25.25;;;;;19.54;39.78;101274.75;4969364;28;46230;-57
2023/06/06 07:29:10;;;;;;;;;31.75;24.50;;;;;19.56;39.89;101270.19;4977071;28;45270;-57
2023/06/06 07:31:36;;;;;;;;;29.50;28.75;;;;;19.54;39.86;101264.94;4974481;28;45265;-56
2023/06/06 07:34:02;;;;;;;;;35.25;31.00;;;;;19.59;39.77;101265.59;4960201;28;45894;-56
2023/06/06 07:36:27;;;;;;;;;27.25;24.50;;;;;19.58;39.68;101268.34;4961081;28;46174;-56
2023/06/06 07:38:53;;;;;;;;;29.75;26.00;;;;;19.64;40.09;101265.41;4964987;28;45232;-56
2023/06/06 07:41:20;;;;;;;;;35.75;30.75;;;;;19.67;40.26;101281.25;4961043;28;45342;-59
2023/06/06 07:43:45;;;;;;;;;31.00;29.00;;;;;19.70;39.89;101274.91;4961060;28;45377;-57
2023/06/06 07:46:10;;;;;;;;;32.75;27.00;;;;;19.72;40.15;101273.06;4960636;28;53114;-56
2023/06/06 07:48:35;;;;;;;;;34.75;31.25;;;;;19.73;39.73;101275.66;4960980;28;45267;-57
2023/06/06 07:51:01;;;;;;;;;34.00;30.50;;;;;19.75;40.01;101268.47;4959727;28;45278;-57
2023/06/06 07:53:26;;;;;;;;;36.50;33.75;;;;;19.71;39.62;101258.00;4960544;28;45534;-58
2023/06/06 07:55:53;;;;;;;;;36.75;33.75;;;;;19.76;39.94;101258.66;4960625;28;45394;-56
2023/06/06 07:58:25;;;;;;;;;38.50;33.50;;;;;19.74;39.87;101253.41;4959443;28;45256;-57
2023/06/06 08:00:50;;;;;;;;;38.25;32.50;;;;;19.84;40.05;101266.38;4960922;28;45414;-56
2023/06/06 08:03:16;;;;;;;;;37.50;30.50;;;;;19.83;40.18;101261.97;4960760;28;46140;-56
2023/06/06 08:05:41;;;;;;;;;36.75;33.00;;;;;19.89;40.11;101270.56;4960389;28;45419;-56
2023/06/06 08:08:07;;;;;;;;;33.00;31.25;;;;;19.92;39.92;101259.75;4960657;28;45307;-61
2023/06/06 08:10:33;;;;;;;;;34.75;30.75;;;;;19.96;39.88;101261.34;4960561;28;45359;-58
2023/06/06 08:13:00;;;;;;;;;36.50;31.00;;;;;20.01;39.83;101257.59;4960721;28;45481;-59
2023/06/06 08:15:25;;;;;;;;;36.50;32.00;;;;;20.03;40.49;101264.59;4960159;28;46349;-59
2023/06/06 08:17:51;;;;;;;;;33.25;28.25;;;;;20.09;40.25;101261.63;4960602;28;45179;-59
2023/06/06 08:20:17;;;;;;;;;34.75;31.00;;;;;20.14;39.96;101259.63;4974216;28;45211;-59
2023/06/06 08:22:52;;;;;;;;;27.75;24.50;;;;;20.21;39.93;101262.00;4960655;28;45449;-58
2023/06/06 08:25:17;;;;;;;;;37.50;30.75;;;;;20.25;40.17;101271.59;4959907;28;45572;-59
2023/06/06 08:27:43;;;;;;;;;33.50;28.25;;;;;20.30;40.43;101257.13;4960486;28;45323;-59
2023/06/06 08:30:09;;;;;;;;;34.25;30.75;;;;;20.39;40.41;101255.81;4992650;28;45418;-58
2023/06/06 08:32:35;;;;;;;;;37.00;31.00;;;;;20.43;40.23;101253.88;4960548;28;45499;-58
2023/06/06 08:35:03;;;;;;;;;33.25;31.25;;;;;20.52;40.03;101261.44;4960047;28;46153;-58
2023/06/06 08:37:28;;;;;;;;;30.00;29.00;;;;;20.57;40.36;101256.72;4960357;28;45299;-59
2023/06/06 08:39:53;;;;;;;;;29.25;27.25;;;;;20.64;40.04;101257.31;4960018;28;45362;-58
2023/06/06 08:42:22;;;;;;;;;32.00;26.75;;;;;20.71;40.20;101258.75;4958831;28;45569;-59
2023/06/06 08:44:49;;;;;;;;;30.00;28.75;;;;;20.77;39.95;101266.47;4962049;28;46994;-58
2023/06/06 08:47:16;;;;;;;;;30.50;29.25;;;;;20.83;40.54;101265.31;4963525;28;45512;-58
2023/06/06 08:49:43;;;;;;;;;33.75;29.50;;;;;20.88;40.13;101268.63;4963609;28;45334;-58
2023/06/06 08:52:09;;;;;;;;;34.75;29.50;;;;;20.91;40.42;101257.78;4963550;28;45426;-58
2023/06/06 08:54:36;;;;;;;;;27.50;24.25;;;;;21.00;39.96;101269.81;4961860;28;46820;-58
2023/06/06 08:57:08;;;;;;;;;35.50;28.00;;;;;21.06;40.45;101264.19;4963249;28;45235;-58
2023/06/06 08:59:40;;;;;;;;;27.75;24.75;;;;;21.13;40.34;101264.75;4963590;28;45339;-58
2023/06/06 09:02:06;;;;;;;;;28.50;26.50;;;;;21.18;40.44;101267.16;4963483;28;45421;-60
2023/06/06 09:04:33;;;;;;;;;30.50;28.25;;;;;21.23;40.17;101265.13;4963133;28;45437;-59
2023/06/06 09:07:04;;;;;;;;;28.75;27.25;;;;;21.28;39.98;101276.44;4963180;28;45397;-58
2023/06/06 09:09:33;;;;;;;;;32.50;27.75;;;;;21.35;39.80;101269.00;4962981;28;45465;-58
2023/06/06 09:11:59;;;;;;;;;27.00;25.50;;;;;21.40;40.25;101277.66;4963061;28;45361;-59
2023/06/06 09:14:24;;;;;;;;;28.50;25.50;;;;;21.45;39.74;101269.41;4977919;28;47033;-58
2023/06/06 09:16:53;;;;;;;;;31.00;27.25;;;;;21.49;40.04;101269.13;4962798;28;45244;-58
2023/06/06 09:19:24;;;;;;;;;29.25;27.50;;;;;21.53;40.19;101260.00;4970594;28;45243;-59
2023/06/06 09:21:51;;;;;;;;;32.00;26.25;;;;;21.61;39.87;101264.13;4968289;28;45480;-59
2023/06/06 09:24:17;;;;;;;;;24.50;22.50;;;;;21.65;40.21;101269.25;4962870;28;45303;-59
2023/06/06 09:26:43;;;;;;;;;27.50;21.50;;;;;21.73;39.90;101264.34;4962716;28;45324;-57
2023/06/06 09:29:09;;;;;;;;;21.50;19.75;;;;;21.77;39.54;101257.03;4969545;28;45366;-58
2023/06/06 09:31:38;;;;;;;;;27.00;23.75;;;;;21.85;40.10;101253.97;4973977;28;45576;-58
2023/06/06 09:34:05;;;;;;;;;24.25;20.50;;;;;21.90;39.69;101254.56;4961433;28;47814;-56
2023/06/06 09:36:34;;;;;;;;;30.25;26.25;;;;;21.96;39.79;101253.38;4962495;28;45227;-56
2023/06/06 09:39:13;;;;;;;;;29.00;25.75;;;;;22.04;39.59;101249.31;4961661;28;45344;-59
2023/06/06 09:41:42;;;;;;;;;24.75;24.00;;;;;22.11;40.09;101257.03;4962488;28;45437;-56
2023/06/06 09:44:20;;;;;;;;;29.75;25.00;;;;;22.17;39.79;101246.84;4962606;28;45279;-58
2023/06/06 09:46:47;;;;;;;;;24.00;22.50;;;;;22.24;39.81;101252.72;4962477;28;45386;-58
2023/06/06 09:49:14;;;;;;;;;25.25;23.25;;;;;22.29;39.62;101244.44;4962576;28;45449;-59
2023/06/06 09:51:41;;;;;;;;;22.75;22.75;;;;;22.38;39.63;101247.50;4962527;28;45323;-58
2023/06/06 09:54:08;;;;;;;;;27.75;22.75;;;;;22.46;39.60;101252.41;4962103;28;45518;-59
2023/06/06 09:56:39;;;;;;;;;24.25;21.75;;;;;22.53;39.31;101247.59;4961555;28;45327;-59
2023/06/06 09:59:06;;;;;;;;;28.00;27.75;;;;;22.59;39.95;101236.53;4962341;28;45251;-59
2023/06/06 10:01:33;;;;;;;;;28.25;25.00;;;;;22.68;39.38;101251.22;4962738;28;45168;-56
2023/06/06 10:03:59;;;;;;;;;25.25;22.75;;;;;22.76;39.80;101237.38;4962307;28;45256;-57
2023/06/06 10:06:26;;;;;;;;;24.75;22.00;;;;;22.84;39.38;101240.47;4962377;28;45465;-57
2023/06/06 10:08:56;;;;;;;;;24.50;23.50;;;;;22.92;39.55;101238.22;4961966;28;45420;-57
2023/06/06 10:11:22;;;;;;;;;22.50;21.50;;;;;23.01;39.48;101234.13;4962018;28;45477;-59
2023/06/06 10:13:50;;;;;;;;;22.00;21.25;;;;;23.11;39.52;101245.19;4962048;28;46033;-57
2023/06/06 10:16:19;;;;;;;;;25.50;24.00;;;;;23.21;39.59;101238.34;4960720;28;45237;-57
2023/06/06 10:18:46;;;;;;;;;23.25;19.00;;;;;23.32;39.18;101237.66;4964793;28;45290;-57
2023/06/06 10:21:15;;;;;;;;;21.00;17.75;;;;;23.43;39.20;101240.56;4972556;28;45528;-57
2023/06/06 10:23:41;;;;;;;;;25.50;20.50;;;;;23.57;39.17;101233.50;4961549;28;47203;-57
2023/06/06 10:26:21;;;;;;;;;23.50;20.75;;;;;23.69;39.09;101236.28;4961903;28;45518;-57
2023/06/06 10:29:11;;;;;;;;;23.25;20.00;;;;;23.85;39.42;101233.53;4962851;28;45315;-57
2023/06/06 10:31:52;;;;;;;;;24.75;20.75;;;;;24.00;39.13;101229.06;4970699;28;45512;-57
2023/06/06 10:34:22;;;;;;;;;27.50;19.00;;;;;24.24;39.25;101232.94;4961800;28;46885;-57
2023/06/06 10:36:47;;;;;;;;;23.25;21.75;;;;;24.49;38.45;101219.66;4961700;28;45291;-58
2023/06/06 10:39:19;;;;;;;;;23.50;21.50;;;;;24.86;39.72;101227.13;4961562;28;45329;-57
2023/06/06 10:41:54;;;;;;;;;21.75;20.75;;;;;25.26;39.43;101221.72;4961533;28;45421;-57
2023/06/06 10:44:26;;;;;;;;;22.25;19.50;;;;;25.73;39.29;101227.47;4961434;28;46022;-57
2023/06/06 10:47:11;;;;;;;;;18.25;16.50;;;;;26.21;39.39;101217.84;4961649;28;45231;-57
2023/06/06 10:49:37;;;;;;;;;21.50;19.75;;;;;26.77;39.31;101220.03;4961555;28;45465;-57
2023/06/06 10:52:05;;;;;;;;;17.50;15.75;;;;;27.31;39.15;101215.03;4976565;28;46049;-57
2023/06/06 10:54:34;;;;;;;;;19.00;17.50;;;;;27.85;39.44;101211.72;4961171;28;47012;-57
2023/06/06 10:56:59;;;;;;;;;23.50;21.75;;;;;28.40;39.15;101210.91;4961348;28;45385;-57
2023/06/06 10:59:27;;;;;;;;;20.00;18.50;;;;;28.94;38.47;101216.41;4960270;28;45256;-57
2023/06/06 11:01:53;;;;;;;;;19.50;17.75;;;;;29.47;38.74;101202.84;4961486;28;45240;-57
2023/06/06 11:04:20;;;;;;;;;22.25;21.25;;;;;30.03;38.82;101211.50;4961139;28;45343;-57
2023/06/06 11:06:48;;;;;;;;;21.75;19.25;;;;;30.58;38.31;101211.09;4960833;28;45453;-57
2023/06/06 11:09:25;;;;;;;;;21.25;19.25;;;;;31.16;37.76;101208.50;4960435;28;45309;-57
2023/06/06 11:12:13;;;;;;;;;19.75;16.50;;;;;31.74;37.09;101207.50;4961087;28;45518;-57